Time;durP1;ratioP1;P1;durP2;ratioP2;P2;SDS_P1;SDS_P2;PMS_P1;PMS_P2;Temp;Humidity;BMP_temperature;BMP_pressure;BME280_temperature;BME280_humidity;BME280_pressure;Samples;Min_cycle;Max_cycle;Signal;HPM_P1;HPM_P2
2023/05/31 00:02:25;;;;;;;;;;;;;;;8.50;74.02;102290.91;108821;1254;72578;-84
2023/05/31 00:04:52;;;;;;;;;;;;;;;8.48;74.07;102287.81;108773;1254;58593;-84
2023/05/31 00:07:19;;;;;;;;;;;;;;;8.46;74.21;102289.08;108836;1254;124891;-84
2023/05/31 00:09:45;;;;;;;;;;;;;;;8.44;74.26;102288.95;108852;1257;74335;-84
2023/05/31 00:12:12;;;;;;;;;;;;;;;8.43;74.28;102286.77;108911;1255;124936;-84
2023/05/31 00:14:39;;;;;;;;;;;;;;;8.42;74.42;102290.35;108936;1254;72531;-85
2023/05/31 00:17:06;;;;;;;;;;;;;;;8.40;74.36;102293.77;108828;1254;58598;-84
2023/05/31 00:19:33;;;;;;;;;;;;;;;8.39;74.39;102293.54;108986;1254;124205;-85
2023/05/31 00:22:00;;;;;;;;;;;;;;;8.38;74.46;102296.08;108986;1270;75059;-84
2023/05/31 00:24:27;;;;;;;;;;;;;;;8.35;74.51;102296.27;108970;1254;125533;-84
2023/05/31 00:26:54;;;;;;;;;;;;;;;8.33;74.45;102296.70;108802;1254;72408;-85
2023/05/31 00:29:21;;;;;;;;;;;;;;;8.31;74.55;102297.09;108887;1254;59447;-86
2023/05/31 00:31:48;;;;;;;;;;;;;;;8.30;74.74;102299.13;108957;1259;125887;-86
2023/05/31 00:34:15;;;;;;;;;;;;;;;8.28;74.71;102298.69;108965;1254;74217;-85
2023/05/31 00:36:41;;;;;;;;;;;;;;;8.26;74.80;102298.05;108995;1254;124924;-85
2023/05/31 00:39:10;;;;;;;;;;;;;;;8.25;74.78;102304.80;109028;1258;72438;-84
2023/05/31 00:41:37;;;;;;;;;;;;;;;8.24;74.88;102305.05;108950;1254;58761;-85
2023/05/31 00:44:03;;;;;;;;;;;;;;;8.22;75.03;102302.52;108836;1254;123775;-84
2023/05/31 00:46:35;;;;;;;;;;;;;;;8.21;75.07;102306.44;109040;1254;72564;-84
2023/05/31 00:49:02;;;;;;;;;;;;;;;8.17;75.12;102304.35;108738;1254;124042;-84
2023/05/31 00:51:30;;;;;;;;;;;;;;;8.15;75.23;102305.09;109096;1254;72707;-84
2023/05/31 00:53:57;;;;;;;;;;;;;;;8.12;75.19;102301.08;108876;1254;124340;-84
2023/05/31 00:56:28;;;;;;;;;;;;;;;8.09;75.26;102301.05;108831;1254;59791;-85
2023/05/31 00:58:56;;;;;;;;;;;;;;;8.06;75.30;102300.48;108844;1254;73895;-85
2023/05/31 01:01:26;;;;;;;;;;;;;;;8.02;75.54;102299.72;109037;1254;123990;-86
2023/05/31 01:03:56;;;;;;;;;;;;;;;7.98;75.50;102301.30;108940;1254;71566;-85
2023/05/31 01:06:23;;;;;;;;;;;;;;;7.95;75.54;102304.92;108722;1257;123985;-85
2023/05/31 01:08:51;;;;;;;;;;;;;;;7.92;75.64;102305.98;108915;1254;58568;-85
2023/05/31 01:11:21;;;;;;;;;;;;;;;7.90;75.80;102307.93;109035;1254;72584;-85
2023/05/31 01:13:51;;;;;;;;;;;;;;;7.87;75.80;102307.23;108914;1254;124205;-85
2023/05/31 01:16:20;;;;;;;;;;;;;;;7.86;76.00;102310.29;108987;1254;72449;-85
2023/05/31 01:18:54;;;;;;;;;;;;;;;7.85;75.93;102312.69;108885;1254;124932;-84
2023/05/31 01:21:26;;;;;;;;;;;;;;;7.84;76.02;102310.86;108789;1254;60799;-84
2023/05/31 01:23:53;;;;;;;;;;;;;;;7.83;76.08;102308.00;108771;1254;124509;-84
2023/05/31 01:26:29;;;;;;;;;;;;;;;7.83;76.10;102306.27;109022;1257;67001;-85
2023/05/31 01:28:59;;;;;;;;;;;;;;;7.84;76.18;102312.44;108911;1254;71888;-85
2023/05/31 01:31:26;;;;;;;;;;;;;;;7.83;76.14;102309.29;108899;1254;124222;-85
2023/05/31 01:33:55;;;;;;;;;;;;;;;7.84;76.16;102307.21;108996;1254;60418;-84
2023/05/31 01:36:22;;;;;;;;;;;;;;;7.84;76.18;102310.15;108866;1254;125357;-84
2023/05/31 01:38:48;;;;;;;;;;;;;;;7.84;76.28;102308.45;109083;1254;66334;-84
2023/05/31 01:41:15;;;;;;;;;;;;;;;7.85;76.26;102309.73;108875;1254;71270;-84
2023/05/31 01:43:43;;;;;;;;;;;;;;;7.85;76.27;102307.45;108888;1254;124892;-85
2023/05/31 01:46:10;;;;;;;;;;;;;;;7.85;76.31;102312.02;108919;1256;58482;-85
2023/05/31 01:48:37;;;;;;;;;;;;;;;7.85;76.38;102312.02;108893;1253;126369;-84
2023/05/31 01:51:05;;;;;;;;;;;;;;;7.84;76.34;102309.16;108982;1254;66590;-85
2023/05/31 01:53:32;;;;;;;;;;;;;;;7.85;76.35;102304.81;108975;1253;72436;-85
2023/05/31 01:55:59;;;;;;;;;;;;;;;7.84;76.43;102301.98;108718;1260;124757;-85
2023/05/31 01:58:27;;;;;;;;;;;;;;;7.85;76.40;102303.42;108861;1259;58820;-85
2023/05/31 02:00:54;;;;;;;;;;;;;;;7.85;76.44;102300.27;108799;1254;125382;-85
2023/05/31 02:03:23;;;;;;;;;;;;;;;7.84;76.45;102299.37;108852;1259;67295;-85
2023/05/31 02:05:57;;;;;;;;;;;;;;;7.85;76.41;102302.19;108861;1254;72154;-85
2023/05/31 02:08:24;;;;;;;;;;;;;;;7.85;76.45;102301.86;108784;1254;59632;-85
2023/05/31 02:10:51;;;;;;;;;;;;;;;7.85;76.46;102301.36;108890;1254;60126;-85
2023/05/31 02:13:19;;;;;;;;;;;;;;;7.85;76.44;102299.09;108852;1255;126563;-85
2023/05/31 02:15:46;;;;;;;;;;;;;;;7.86;76.48;102299.63;108844;1255;67035;-85
2023/05/31 02:18:16;;;;;;;;;;;;;;;7.86;76.47;102299.12;108614;1254;126862;-85
2023/05/31 02:20:43;;;;;;;;;;;;;;;7.88;76.48;102295.56;108862;1257;58867;-86
2023/05/31 02:23:10;;;;;;;;;;;;;;;7.90;76.56;102296.73;108734;1260;58755;-86
2023/05/31 02:25:37;;;;;;;;;;;;;;;7.93;76.57;102299.70;108791;1256;125885;-86
2023/05/31 02:28:04;;;;;;;;;;;;;;;7.93;76.61;102300.63;109022;1254;66560;-86
2023/05/31 02:30:31;;;;;;;;;;;;;;;7.96;76.57;102304.83;108776;1254;126109;-85
2023/05/31 02:32:59;;;;;;;;;;;;;;;8.00;76.60;102304.36;108996;1269;59112;-85
2023/05/31 02:35:26;;;;;;;;;;;;;;;8.03;76.58;102305.73;108800;1257;59168;-86
2023/05/31 02:37:53;;;;;;;;;;;;;;;8.06;76.66;102302.23;108914;1254;124780;-85
2023/05/31 02:40:20;;;;;;;;;;;;;;;8.09;76.56;102303.83;108907;1254;67111;-85
2023/05/31 02:42:47;;;;;;;;;;;;;;;8.12;76.57;102304.02;108950;1254;124321;-85
2023/05/31 02:45:14;;;;;;;;;;;;;;;8.16;76.56;102305.16;108954;1257;59613;-85
2023/05/31 02:47:41;;;;;;;;;;;;;;;8.22;76.59;102299.68;108891;1255;58892;-85
2023/05/31 02:50:09;;;;;;;;;;;;;;;8.27;76.49;102290.91;108771;1257;124781;-85
2023/05/31 02:52:36;;;;;;;;;;;;;;;8.31;76.48;102289.08;108967;1257;65888;-85
2023/05/31 02:55:03;;;;;;;;;;;;;;;8.36;76.42;102287.41;108701;1254;126660;-85
2023/05/31 02:57:30;;;;;;;;;;;;;;;8.40;76.32;102284.89;108886;1254;58814;-85
2023/05/31 02:59:58;;;;;;;;;;;;;;;8.46;76.25;102288.73;109034;1254;124390;-84
2023/05/31 03:02:25;;;;;;;;;;;;;;;8.52;76.28;102288.04;108823;1256;74439;-85
2023/05/31 03:04:52;;;;;;;;;;;;;;;8.59;76.26;102283.70;108954;1255;66881;-85
2023/05/31 03:07:19;;;;;;;;;;;;;;;8.66;76.15;102291.12;108871;1255;126692;-85
2023/05/31 03:09:46;;;;;;;;;;;;;;;8.73;76.05;102291.34;108925;1256;59538;-85
2023/05/31 03:12:13;;;;;;;;;;;;;;;8.81;76.01;102298.95;108896;1254;124397;-85
2023/05/31 03:14:40;;;;;;;;;;;;;;;8.89;75.93;102291.92;109016;1257;72968;-85
2023/05/31 03:17:07;;;;;;;;;;;;;;;9.01;75.82;102292.88;108990;1257;66259;-86
2023/05/31 03:19:34;;;;;;;;;;;;;;;9.14;75.80;102292.75;108880;1254;124860;-85
2023/05/31 03:22:01;;;;;;;;;;;;;;;9.29;75.80;102290.77;108987;1256;59885;-85
2023/05/31 03:24:28;;;;;;;;;;;;;;;9.69;76.51;102293.09;108853;1256;125368;-85
2023/05/31 03:26:55;;;;;;;;;;;;;;;11.14;78.94;102282.27;108957;1256;72212;-85
2023/05/31 03:29:23;;;;;;;;;;;;;;;13.17;79.12;102278.69;108726;1257;65913;-85
2023/05/31 03:31:50;;;;;;;;;;;;;;;14.90;76.59;102273.02;108727;1260;125141;-85
2023/05/31 03:34:17;;;;;;;;;;;;;;;15.75;73.10;102263.55;108932;1259;59002;-85
2023/05/31 03:36:44;;;;;;;;;;;;;;;15.74;69.67;102265.31;108731;1255;125083;-85
2023/05/31 03:39:11;;;;;;;;;;;;;;;15.55;68.93;102263.85;108963;1257;74368;-85
2023/05/31 03:41:38;;;;;;;;;;;;;;;16.09;69.01;102260.24;108991;1271;67560;-85
2023/05/31 03:44:04;;;;;;;;;;;;;;;16.32;67.08;102260.30;108804;1257;124620;-85
2023/05/31 03:46:31;;;;;;;;;;;;;;;16.29;66.26;102260.40;108883;1257;58563;-85
2023/05/31 03:48:58;;;;;;;;;;;;;;;17.35;67.90;102257.52;108722;1256;125556;-86
2023/05/31 03:51:25;;;;;;;;;;;;;;;19.42;67.64;102249.85;108988;1258;73134;-86
2023/05/31 03:53:52;;;;;;;;;;;;;;;21.42;65.40;102250.84;108836;1257;68092;-87
2023/05/31 03:56:20;;;;;;;;;;;;;;;23.17;62.72;102245.77;108856;1254;125319;-85
2023/05/31 03:58:47;;;;;;;;;;;;;;;24.67;60.12;102247.34;109057;1254;58415;-85
2023/05/31 04:01:14;;;;;;;;;;;;;;;26.01;57.56;102245.90;108974;1255;124219;-86
2023/05/31 04:03:41;;;;;;;;;;;;;;;27.22;55.26;102240.68;108923;1257;73620;-86
2023/05/31 04:06:08;;;;;;;;;;;;;;;28.24;52.92;102241.45;108683;1257;124003;-85
2023/05/31 04:08:35;;;;;;;;;;;;;;;29.16;50.62;102237.91;108744;1254;72533;-85
2023/05/31 04:11:06;;;;;;;;;;;;;;;29.99;48.67;102240.43;109153;1259;58576;-84
2023/05/31 04:13:50;;;;;;;;;;;;;;;30.74;46.67;102233.73;108702;1257;124816;-85
2023/05/31 04:16:17;;;;;;;;;;;;;;;31.51;44.99;102228.15;109025;1257;65550;-85
2023/05/31 04:18:44;;;;;;;;;;;;;;;32.34;43.62;102230.59;108723;1254;124366;-84
2023/05/31 04:21:14;;;;;;;;;;;;;;;33.02;41.65;102226.67;108926;1256;63317;-84
2023/05/31 04:23:41;;;;;;;;;;;;;;;33.54;40.39;102220.44;108956;1255;58646;-83
2023/05/31 04:26:13;;;;;;;;;;;;;;;34.12;39.15;102212.63;108791;1257;123747;-83
2023/05/31 04:28:42;;;;;;;;;;;;;;;34.63;37.68;102207.10;108949;1254;63995;-83
2023/05/31 04:31:09;;;;;;;;;;;;;;;35.17;36.63;102204.89;108973;1255;124413;-84
2023/05/31 04:33:36;;;;;;;;;;;;;;;35.66;35.54;102203.76;109056;1255;63567;-87
2023/05/31 04:36:08;;;;;;;;;;;;;;;36.10;34.50;102198.81;108918;1259;125586;-85
2023/05/31 04:38:35;;;;;;;;;;;;;;;36.54;33.55;102197.47;108973;1259;58760;-85
2023/05/31 04:41:06;;;;;;;;;;;;;;;36.95;32.55;102199.45;108833;1255;65487;-82
2023/05/31 04:43:32;;;;;;;;;;;;;;;37.32;31.90;102199.85;108943;1255;124323;-82
2023/05/31 04:46:00;;;;;;;;;;;;;;;37.77;31.04;102197.26;108874;1255;64055;-82
2023/05/31 04:48:36;;;;;;;;;;;;;;;38.26;30.37;102192.98;108854;1254;124391;-83
2023/05/31 04:51:05;;;;;;;;;;;;;;;38.73;29.54;102192.48;109100;1257;58238;-81
2023/05/31 04:53:32;;;;;;;;;;;;;;;39.25;28.99;102188.34;109126;1256;65533;-84
2023/05/31 04:56:04;;;;;;;;;;;;;;;39.62;28.09;102180.22;108683;1262;125172;-82
2023/05/31 04:58:31;;;;;;;;;;;;;;;39.96;27.45;102178.57;108948;1257;64050;-84
2023/05/31 05:00:59;;;;;;;;;;;;;;;40.23;26.54;102175.39;108711;1254;124504;-86
2023/05/31 05:03:26;;;;;;;;;;;;;;;40.32;25.96;102178.15;109062;1256;58661;-83
2023/05/31 05:05:53;;;;;;;;;;;;;;;40.48;25.41;102179.33;109050;1254;65230;-83
2023/05/31 05:08:21;;;;;;;;;;;;;;;40.63;25.06;102178.87;108928;1254;125050;-84
2023/05/31 05:10:49;;;;;;;;;;;;;;;40.77;24.60;102174.22;108834;1254;64757;-80
2023/05/31 05:13:21;;;;;;;;;;;;;;;40.94;24.24;102171.61;108790;1254;123908;-80
2023/05/31 05:15:48;;;;;;;;;;;;;;;41.19;23.92;102169.21;108873;1255;257952;-79
2023/05/31 05:18:15;;;;;;;;;;;;;;;41.43;23.40;102164.98;108965;1258;124717;-80
2023/05/31 05:20:42;;;;;;;;;;;;;;;41.65;22.78;102165.68;109093;1257;58531;-80
2023/05/31 05:23:09;;;;;;;;;;;;;;;41.77;22.54;102162.69;109014;1260;64021;-84
2023/05/31 05:25:36;;;;;;;;;;;;;;;41.27;21.90;102161.55;108637;1263;125260;-84
2023/05/31 05:28:03;;;;;;;;;;;;;;;40.64;21.98;102156.00;108988;1254;58357;-84
2023/05/31 05:30:30;;;;;;;;;;;;;;;40.93;21.97;102158.25;108815;1260;124188;-84
2023/05/31 05:32:57;;;;;;;;;;;;;;;41.34;21.70;102152.46;108943;1254;58359;-84
2023/05/31 05:35:24;;;;;;;;;;;;;;;41.61;21.14;102151.33;108881;1254;63202;-85
2023/05/31 05:37:52;;;;;;;;;;;;;;;40.37;20.42;102147.51;108892;1259;125049;-84
2023/05/31 05:40:22;;;;;;;;;;;;;;;37.61;20.37;102149.02;109100;1254;58480;-84
2023/05/31 05:42:50;;;;;;;;;;;;;;;34.60;20.89;102151.63;108802;1254;124995;-84
2023/05/31 05:45:17;;;;;;;;;;;;;;;31.89;22.05;102150.52;108984;1255;67787;-84
2023/05/31 05:47:45;;;;;;;;;;;;;;;30.05;22.94;102159.45;109075;1254;64091;-84
2023/05/31 05:50:12;;;;;;;;;;;;;;;28.43;23.88;102155.92;109046;1254;124797;-83
2023/05/31 05:52:39;;;;;;;;;;;;;;;27.28;24.73;102150.81;109159;1254;58340;-84
2023/05/31 05:55:06;;;;;;;;;;;;;;;26.38;25.65;102144.70;108987;1254;125382;-84
2023/05/31 05:57:33;;;;;;;;;;;;;;;25.58;26.39;102142.63;108953;1254;67162;-84
2023/05/31 06:00:00;;;;;;;;;;;;;;;24.87;27.19;102142.13;108979;1254;71832;-84
2023/05/31 06:02:27;;;;;;;;;;;;;;;24.25;27.91;102137.77;108883;1259;125321;-84
2023/05/31 06:04:57;;;;;;;;;;;;;;;23.74;28.55;102137.30;108956;1254;58800;-83
2023/05/31 06:07:24;;;;;;;;;;;;;;;23.27;29.23;102135.64;109056;1254;124401;-83
2023/05/31 06:09:52;;;;;;;;;;;;;;;22.81;29.61;102139.76;109165;1253;67836;-84
2023/05/31 06:12:19;;;;;;;;;;;;;;;22.40;30.19;102141.66;108856;1254;124575;-83
2023/05/31 06:14:48;;;;;;;;;;;;;;;22.01;30.47;102138.63;108989;1255;58272;-84
2023/05/31 06:17:15;;;;;;;;;;;;;;;21.51;30.75;102139.48;108941;1259;59568;-83
2023/05/31 06:19:42;;;;;;;;;;;;;;;21.17;31.27;102139.73;109044;1254;123910;-83
2023/05/31 06:22:09;;;;;;;;;;;;;;;20.95;31.80;102141.79;109087;1254;67084;-84
2023/05/31 06:24:36;;;;;;;;;;;;;;;20.68;32.25;102142.37;108842;1257;124910;-84
2023/05/31 06:27:02;;;;;;;;;;;;;;;20.49;32.38;102133.86;109071;1259;58688;-84
2023/05/31 06:29:29;;;;;;;;;;;;;;;20.27;32.73;102133.36;109151;1269;60506;-84
2023/05/31 06:31:59;;;;;;;;;;;;;;;20.09;32.97;102131.45;108896;1254;123894;-84
2023/05/31 06:34:26;;;;;;;;;;;;;;;19.95;33.23;102127.05;109192;1254;65457;-84
2023/05/31 06:37:00;;;;;;;;;;;;;;;19.84;33.38;102124.11;108900;1254;125094;-84
2023/05/31 06:39:27;;;;;;;;;;;;;;;19.74;33.63;102118.15;109064;1254;58506;-85
2023/05/31 06:41:54;;;;;;;;;;;;;;;19.68;33.75;102113.42;108980;1254;58672;-85
2023/05/31 06:44:21;;;;;;;;;;;;;;;19.60;33.72;102112.46;108805;1254;124648;-85
2023/05/31 06:46:48;;;;;;;;;;;;;;;19.54;33.82;102111.17;108826;1261;67030;-85
2023/05/31 06:49:15;;;;;;;;;;;;;;;19.49;33.70;102110.58;109060;1254;125759;-85
2023/05/31 06:51:42;;;;;;;;;;;;;;;19.46;33.81;102104.50;109155;1258;58259;-85
2023/05/31 06:54:09;;;;;;;;;;;;;;;19.44;33.91;102104.12;109170;1258;59048;-85
2023/05/31 06:56:35;;;;;;;;;;;;;;;19.40;33.69;102102.84;109085;1254;125002;-84
2023/05/31 06:59:02;;;;;;;;;;;;;;;19.36;33.72;102098.88;109226;1254;65799;-86
2023/05/31 07:01:29;;;;;;;;;;;;;;;19.36;33.63;102103.14;109079;1269;125375;-85
2023/05/31 07:03:57;;;;;;;;;;;;;;;19.33;33.58;102100.11;109089;1254;58577;-85
2023/05/31 07:06:24;;;;;;;;;;;;;;;19.31;33.43;102101.50;108816;1259;125715;-85
2023/05/31 07:08:51;;;;;;;;;;;;;;;19.26;33.38;102102.86;108986;1254;74377;-85
2023/05/31 07:11:18;;;;;;;;;;;;;;;19.26;33.61;102090.59;109016;1254;67079;-85
2023/05/31 07:13:45;;;;;;;;;;;;;;;19.25;33.32;102088.27;108859;1258;124785;-85
2023/05/31 07:16:12;;;;;;;;;;;;;;;19.19;33.27;102090.88;108820;1254;58358;-84
2023/05/31 07:18:39;;;;;;;;;;;;;;;19.15;33.48;102089.59;108971;1254;124555;-85
2023/05/31 07:21:08;;;;;;;;;;;;;;;19.17;33.34;102090.86;108810;1260;72620;-85
2023/05/31 07:23:35;;;;;;;;;;;;;;;19.22;33.36;102086.98;109046;1258;66934;-85
2023/05/31 07:26:02;;;;;;;;;;;;;;;19.31;33.33;102084.23;108831;1254;124275;-85
2023/05/31 07:28:29;;;;;;;;;;;;;;;19.42;33.24;102078.65;109068;1257;59258;-85
2023/05/31 07:30:56;;;;;;;;;;;;;;;19.56;33.19;102077.34;108789;1257;128865;-85
2023/05/31 07:33:23;;;;;;;;;;;;;;;19.71;33.16;102074.11;108963;1257;73896;-85
2023/05/31 07:35:50;;;;;;;;;;;;;;;19.87;33.08;102064.27;109109;1258;67060;-84
2023/05/31 07:38:17;;;;;;;;;;;;;;;20.03;33.18;102063.15;108852;1254;123981;-85
2023/05/31 07:40:44;;;;;;;;;;;;;;;20.22;33.14;102062.73;109018;1260;58569;-85
2023/05/31 07:43:11;;;;;;;;;;;;;;;20.38;33.00;102061.05;108805;1259;124741;-84
2023/05/31 07:45:41;;;;;;;;;;;;;;;20.51;32.75;102058.44;109050;1260;73366;-85
2023/05/31 07:48:07;;;;;;;;;;;;;;;20.59;32.61;102055.45;109039;1254;67036;-85
2023/05/31 07:50:34;;;;;;;;;;;;;;;20.66;32.57;102052.83;108976;1254;125737;-85
2023/05/31 07:53:01;;;;;;;;;;;;;;;20.75;32.69;102042.70;109003;1254;58560;-85
2023/05/31 07:55:28;;;;;;;;;;;;;;;20.90;32.69;102045.77;108910;1257;123961;-85
2023/05/31 07:57:55;;;;;;;;;;;;;;;20.98;32.41;102045.61;109018;1256;73480;-85
2023/05/31 08:00:23;;;;;;;;;;;;;;;21.01;32.27;102045.27;109016;1255;124725;-85
2023/05/31 08:02:50;;;;;;;;;;;;;;;21.06;32.26;102039.74;109057;1257;72651;-85
2023/05/31 08:05:17;;;;;;;;;;;;;;;21.08;32.27;102037.98;108831;1256;58980;-85
2023/05/31 08:07:44;;;;;;;;;;;;;;;21.09;32.14;102037.80;108914;1256;124529;-85
2023/05/31 08:10:12;;;;;;;;;;;;;;;21.05;32.07;102034.03;108964;1257;72468;-85
2023/05/31 08:12:39;;;;;;;;;;;;;;;21.04;32.07;102025.64;108967;1259;126348;-85
2023/05/31 08:15:06;;;;;;;;;;;;;;;21.00;32.13;102029.02;108912;1254;72119;-85
2023/05/31 08:17:33;;;;;;;;;;;;;;;20.90;32.17;102031.15;108948;1255;58672;-85
2023/05/31 08:20:06;;;;;;;;;;;;;;;20.82;32.30;102027.38;108866;1256;124552;-85
2023/05/31 08:22:33;;;;;;;;;;;;;;;20.78;32.29;102024.69;108939;1254;72438;-85
2023/05/31 08:25:00;;;;;;;;;;;;;;;20.72;32.47;102023.23;108818;1257;124584;-83
2023/05/31 08:27:27;;;;;;;;;;;;;;;20.71;32.62;102015.92;108887;1257;70741;-85
2023/05/31 08:29:53;;;;;;;;;;;;;;;20.76;32.84;102009.52;108839;1254;58509;-83
2023/05/31 08:32:23;;;;;;;;;;;;;;;20.84;32.98;102010.80;108960;1257;124162;-84
2023/05/31 08:34:50;;;;;;;;;;;;;;;20.90;33.03;102002.77;108909;1254;73680;-83
2023/05/31 08:37:17;;;;;;;;;;;;;;;20.96;32.90;101998.15;108978;1258;124571;-83
2023/05/31 08:39:44;;;;;;;;;;;;;;;20.98;32.98;101997.43;108934;1256;70863;-83
2023/05/31 08:42:13;;;;;;;;;;;;;;;21.02;32.89;101997.09;109106;1255;58251;-83
2023/05/31 08:44:40;;;;;;;;;;;;;;;21.04;32.98;101994.41;109116;1258;58810;-84
2023/05/31 08:47:33;;;;;;;;;;;;;;;21.06;32.95;101991.91;108988;1259;73946;-83
2023/05/31 08:50:00;;;;;;;;;;;;;;;21.09;32.93;101981.56;108935;1254;125286;-83
2023/05/31 08:52:28;;;;;;;;;;;;;;;21.17;32.98;101984.26;108951;1257;71431;-84
2023/05/31 08:54:55;;;;;;;;;;;;;;;21.20;32.96;101986.04;108829;1259;124272;-83
2023/05/31 08:57:22;;;;;;;;;;;;;;;21.15;32.76;101988.00;108970;1259;59091;-83
2023/05/31 08:59:48;;;;;;;;;;;;;;;21.06;32.75;101986.03;108962;1260;73311;-84
2023/05/31 09:02:15;;;;;;;;;;;;;;;21.00;32.84;101985.48;108814;1257;124355;-84
2023/05/31 09:04:42;;;;;;;;;;;;;;;21.00;33.02;101982.45;109020;1259;71042;-85
2023/05/31 09:07:09;;;;;;;;;;;;;;;21.02;33.03;101977.98;108880;1258;124940;-84
2023/05/31 09:09:36;;;;;;;;;;;;;;;20.97;33.02;101979.22;108893;1259;60151;-84
2023/05/31 09:12:04;;;;;;;;;;;;;;;20.86;32.82;101971.73;109100;1254;73545;-84
2023/05/31 09:14:31;;;;;;;;;;;;;;;20.75;33.03;101970.63;109004;1255;123749;-84
2023/05/31 09:17:01;;;;;;;;;;;;;;;20.77;33.21;101967.77;108881;1254;72089;-84
2023/05/31 09:19:28;;;;;;;;;;;;;;;20.83;33.26;101965.64;108937;1259;125448;-84
2023/05/31 09:21:54;;;;;;;;;;;;;;;20.86;33.03;101961.20;108821;1255;60086;-84
2023/05/31 09:24:22;;;;;;;;;;;;;;;20.85;32.99;101956.73;108979;1254;124544;-84
2023/05/31 09:26:50;;;;;;;;;;;;;;;20.89;33.10;101962.45;108844;1254;68015;-84
2023/05/31 09:29:17;;;;;;;;;;;;;;;20.99;33.33;101958.89;108883;1254;72701;-84
2023/05/31 09:31:44;;;;;;;;;;;;;;;21.11;33.51;101955.15;108756;1255;124202;-84
2023/05/31 09:34:29;;;;;;;;;;;;;;;21.24;33.45;101951.94;108911;1259;60174;-84
2023/05/31 09:36:59;;;;;;;;;;;;;;;21.31;33.25;101951.23;108718;1260;124470;-84
2023/05/31 09:39:26;;;;;;;;;;;;;;;21.35;33.31;101948.20;108934;1254;66722;-84
2023/05/31 09:41:56;;;;;;;;;;;;;;;21.39;33.15;101946.94;108952;1260;71212;-84
2023/05/31 09:44:27;;;;;;;;;;;;;;;21.38;33.23;101944.98;108867;1260;124640;-84
2023/05/31 09:46:54;;;;;;;;;;;;;;;21.39;33.21;101943.55;108987;1254;59185;-84
2023/05/31 09:49:24;;;;;;;;;;;;;;;21.39;33.16;101941.94;109073;1259;124297;-84
2023/05/31 09:51:52;;;;;;;;;;;;;;;21.40;33.14;101936.77;108973;1254;65955;-84
2023/05/31 09:54:22;;;;;;;;;;;;;;;21.40;33.22;101936.93;108810;1255;123841;-83
2023/05/31 09:56:49;;;;;;;;;;;;;;;21.41;33.08;101941.23;109139;1260;58427;-84
2023/05/31 09:59:17;;;;;;;;;;;;;;;21.40;32.95;101937.30;109180;1254;58953;-84
2023/05/31 10:01:44;;;;;;;;;;;;;;;21.41;33.05;101930.69;108883;1254;124736;-85
2023/05/31 10:04:11;;;;;;;;;;;;;;;21.48;33.10;101936.60;109025;1260;65676;-84
2023/05/31 10:06:38;;;;;;;;;;;;;;;21.49;32.73;101933.75;109007;1254;124587;-84
2023/05/31 10:09:06;;;;;;;;;;;;;;;21.45;32.39;101930.53;108823;1254;58676;-84
2023/05/31 10:11:34;;;;;;;;;;;;;;;21.40;32.56;101929.80;108852;1259;59241;-84
2023/05/31 10:14:02;;;;;;;;;;;;;;;21.43;32.77;101928.02;109084;1254;123903;-84
2023/05/31 10:16:32;;;;;;;;;;;;;;;21.52;32.93;101925.16;108963;1254;65762;-84
2023/05/31 10:19:00;;;;;;;;;;;;;;;21.57;32.77;101919.09;108785;1254;125385;-84
2023/05/31 10:21:27;;;;;;;;;;;;;;;21.64;32.92;101906.22;108768;1270;59091;-84
2023/05/31 10:23:54;;;;;;;;;;;;;;;21.73;33.00;101906.55;108941;1260;60000;-84
2023/05/31 10:26:21;;;;;;;;;;;;;;;21.82;32.71;101903.66;108834;1260;123847;-84
2023/05/31 10:28:54;;;;;;;;;;;;;;;21.91;32.85;101898.98;108915;1260;65726;-83
2023/05/31 10:31:22;;;;;;;;;;;;;;;22.04;32.68;101893.58;108789;1254;124194;-84
2023/05/31 10:33:51;;;;;;;;;;;;;;;22.14;32.32;101895.85;108969;1254;58578;-85
2023/05/31 10:36:18;;;;;;;;;;;;;;;22.21;32.23;101887.77;108852;1254;124224;-84
2023/05/31 10:38:50;;;;;;;;;;;;;;;22.28;32.13;101887.40;109119;1254;73931;-84
2023/05/31 10:41:17;;;;;;;;;;;;;;;22.28;31.98;101880.61;108851;1254;66046;-84
2023/05/31 10:43:50;;;;;;;;;;;;;;;22.30;31.89;101877.20;108729;1254;124623;-84
2023/05/31 10:46:22;;;;;;;;;;;;;;;22.32;31.85;101877.73;108931;1254;58683;-84
2023/05/31 10:48:53;;;;;;;;;;;;;;;22.29;31.78;101874.70;108843;1254;124890;-85
2023/05/31 10:51:40;;;;;;;;;;;;;;;22.31;31.93;101874.52;109113;1267;75005;-84
2023/05/31 10:54:13;;;;;;;;;;;;;;;22.40;32.14;101868.55;109084;1254;67591;-84
2023/05/31 10:56:40;;;;;;;;;;;;;;;22.49;32.05;101868.69;108689;1262;71587;-85
2023/05/31 10:59:10;;;;;;;;;;;;;;;22.52;31.84;101865.09;108951;1254;58547;-84
2023/05/31 11:01:37;;;;;;;;;;;;;;;22.53;31.89;101860.96;108826;1254;125367;-84
2023/05/31 11:04:04;;;;;;;;;;;;;;;22.52;31.81;101855.61;108975;1255;74908;-84
2023/05/31 11:06:36;;;;;;;;;;;;;;;22.51;32.04;101850.07;108869;1255;124143;-84
2023/05/31 11:09:10;;;;;;;;;;;;;;;22.54;32.00;101848.25;109115;1254;70170;-84
2023/05/31 11:11:39;;;;;;;;;;;;;;;22.57;31.86;101849.48;109034;1254;58528;-84
2023/05/31 11:14:10;;;;;;;;;;;;;;;22.53;31.63;101844.15;108822;1260;124054;-84
2023/05/31 11:16:43;;;;;;;;;;;;;;;22.52;31.79;101838.43;108808;1254;74616;-84
2023/05/31 11:19:13;;;;;;;;;;;;;;;22.56;31.80;101834.83;108882;1254;124107;-84
2023/05/31 11:22:03;;;;;;;;;;;;;;;22.59;31.66;101824.42;108952;1254;72708;-84
2023/05/31 11:24:34;;;;;;;;;;;;;;;22.60;31.47;101824.05;109012;1254;125023;-84
2023/05/31 11:27:02;;;;;;;;;;;;;;;22.62;31.25;101826.36;108898;1254;59913;-84
2023/05/31 11:29:44;;;;;;;;;;;;;;;22.61;31.14;101819.94;109005;1254;73250;-85
2023/05/31 11:32:11;;;;;;;;;;;;;;;22.58;31.06;101814.24;109135;1254;123698;-85
2023/05/31 11:34:54;;;;;;;;;;;;;;;22.56;31.10;101818.73;109203;1254;72092;-84
2023/05/31 11:37:21;;;;;;;;;;;;;;;22.54;31.24;101809.96;108839;1257;124779;-84
2023/05/31 11:39:48;;;;;;;;;;;;;;;22.58;31.43;101801.54;109059;1254;60653;-83
2023/05/31 11:42:15;;;;;;;;;;;;;;;22.62;31.41;101799.35;108965;1258;73135;-84
2023/05/31 11:44:43;;;;;;;;;;;;;;;22.69;31.48;101794.81;108934;1254;125085;-84
2023/05/31 11:47:30;;;;;;;;;;;;;;;22.77;31.58;101793.15;108863;1254;70861;-84
2023/05/31 11:49:57;;;;;;;;;;;;;;;22.84;31.37;101789.86;108859;1260;123987;-84
2023/05/31 11:52:24;;;;;;;;;;;;;;;22.90;31.24;101786.59;108899;1253;59416;-84
2023/05/31 11:54:54;;;;;;;;;;;;;;;22.94;30.86;101780.27;108777;1254;124709;-84
2023/05/31 11:57:27;;;;;;;;;;;;;;;22.96;30.71;101776.14;109151;1255;67373;-84
2023/05/31 12:00:11;;;;;;;;;;;;;;;22.97;30.50;101770.77;108947;1254;71423;-84
2023/05/31 12:03:26;;;;;;;;;;;;;;;22.96;30.61;101765.05;108946;1254;123733;-85
2023/05/31 12:06:08;;;;;;;;;;;;;;;22.93;30.58;101757.20;108907;1254;59396;-85
2023/05/31 12:08:47;;;;;;;;;;;;;;;22.94;30.66;101756.13;108964;1254;124493;-85
2023/05/31 12:11:14;;;;;;;;;;;;;;;22.95;30.55;101751.63;108960;1254;67421;-86
2023/05/31 12:13:47;;;;;;;;;;;;;;;22.98;30.46;101746.95;108896;1254;123874;-83
2023/05/31 12:16:15;;;;;;;;;;;;;;;23.02;30.45;101740.98;109157;1254;59126;-84
2023/05/31 12:18:42;;;;;;;;;;;;;;;23.04;30.44;101738.50;109011;1254;124484;-83
2023/05/31 12:21:11;;;;;;;;;;;;;;;23.04;30.23;101738.85;108979;1254;73613;-84
2023/05/31 12:23:57;;;;;;;;;;;;;;;23.06;30.37;101728.98;108977;1254;67042;-83
2023/05/31 12:26:27;;;;;;;;;;;;;;;23.08;30.22;101731.28;108953;1254;124070;-84
2023/05/31 12:28:54;;;;;;;;;;;;;;;23.11;30.35;101727.33;108983;1254;58500;-84
2023/05/31 12:31:24;;;;;;;;;;;;;;;23.15;30.47;101716.53;108969;1254;123883;-84
2023/05/31 12:33:52;;;;;;;;;;;;;;;23.18;30.19;101716.49;108981;1254;73169;-84